Thursday, March 21, 2019, 4:51 PM EDT
Back to Local

KPVC, Provincetown, Provincetown Municipal Airport

Location: Provincetown, MA, United States Lat: 42.067
Local Time: 4:51 PM EDT (20:51 GMT) Lon: -70.217
Time Zone: US/Eastern Elev: 6 ft

Show me the last for .
Show Decoded

2019-03-21 15:56 METAR KPVC 211956Z AUTO 14010G15KT 10SM CLR 07/01 A3011 RMK AO2 SLP195 T00720011
                 =
2019-03-21 14:56 METAR KPVC 211856Z AUTO 15012G17KT 10SM CLR 08/M01 A3014 RMK AO2 SLP204
                 T00831011 =
2019-03-21 13:56 METAR KPVC 211756Z AUTO 16013KT 10SM BKN055 08/M03 A3015 RMK AO2 SLP209
                 T00831028 10089 20044 58027 =
2019-03-21 12:56 METAR KPVC 211656Z AUTO 16010G18KT 10SM BKN060 08/M03 A3019 RMK AO2 SLP222
                 T00831033 =
2019-03-21 11:56 METAR KPVC 211556Z AUTO 16013G21KT 10SM BKN060 OVC080 08/M01 A3020 RMK AO2
                 SLP226 T00831006 =
2019-03-21 10:56 METAR KPVC 211456Z AUTO 16012G17KT 10SM SCT065 08/01 A3023 RMK AO2 SLP236
                 T00780006 56014 =
2019-03-21 09:56 METAR KPVC 211356Z AUTO 15011G18KT 10SM CLR 07/00 A3023 RMK AO2 SLP238 T00720000
                 =
2019-03-21 08:56 METAR KPVC 211256Z AUTO 14009KT 10SM CLR 06/M02 A3025 RMK AO2 SLP242 T00561017 =
2019-03-21 07:56 METAR KPVC 211156Z AUTO 16008KT 10SM CLR 04/M02 A3027 RMK AO2 SLP250 7////
                 T00441022 10044 20017 58005 =
2019-03-21 06:56 METAR KPVC 211056Z AUTO 17005KT 10SM CLR 02/M02 A3028 RMK AO2 SLP255 T00221017
                 FZRANO =
2019-03-21 05:56 METAR KPVC 210956Z AUTO 16004KT 10SM CLR 02/M01 A3028 RMK AO2 SLP253 T00171011
                 FZRANO =
2019-03-21 04:56 METAR KPVC 210856Z AUTO 17006KT 10SM CLR 02/M01 A3029 RMK AO2 SLP255 T00221006
                 56013 FZRANO =
2019-03-21 03:56 METAR KPVC 210756Z AUTO 19007KT 10SM CLR 02/00 A3029 RMK AO2 SLP258 T00220000
                 FZRANO =
2019-03-21 02:56 METAR KPVC 210656Z AUTO 19010KT 10SM CLR 03/00 A3031 RMK AO2 SLP262 T00280000 =
2019-03-21 01:56 METAR KPVC 210556Z AUTO 18006KT 10SM CLR 03/01 A3032 RMK AO2 SLP268 T00280006
                 10039 20028 58006 =
2019-03-21 00:56 METAR KPVC 210456Z AUTO 19009KT 10SM CLR 03/01 A3033 RMK AO2 SLP271 T00280006
                 400830028 =
2019-03-20 23:56 METAR KPVC 210356Z AUTO 20008KT 10SM CLR 03/00 A3034 RMK AO2 SLP272 T00280000 =
2019-03-20 22:56 METAR KPVC 210256Z AUTO 19007KT 10SM CLR 03/M01 A3034 RMK AO2 SLPNO T00281011
                 50002 =
2019-03-20 21:56 METAR KPVC 210156Z AUTO 20008KT 10SM CLR 03/M01 A3035 RMK AO2 SLPNO T00281011 =
2019-03-20 20:56 METAR KPVC 210056Z AUTO 21011KT 10SM CLR 03/M01 A3035 RMK AO2 SLPNO T00331006 =
2019-03-20 19:56 METAR KPVC 202356Z AUTO 20012KT 10SM CLR 04/M01 A3033 RMK AO2 SLPNO T00391006
                 10078 20033 53001 =
2019-03-20 18:56 METAR KPVC 202256Z AUTO 20011KT 10SM CLR 04/M01 A3033 RMK AO2 SLPNO T00391011 =
2019-03-20 17:56 METAR KPVC 202156Z AUTO 20011KT 10SM CLR 06/M03 A3033 RMK AO2 SLPNO T00611033 =
2019-03-20 16:56 METAR KPVC 202056Z AUTO 19015G19KT 10SM CLR 07/M02 A3033 RMK AO2 SLPNO T00671022
                 56013 =

Support USWX by starting your Amazon purchase here.